Observations for STORNOWAY, United Kingdom (EGPO)

EGPO 200620Z 19010KT 9999 FEW008 BKN011 10/09 Q1028 
EGPO 200550Z 19010KT 9999 FEW007 BKN010 10/09 Q1028 
EGPO 200520Z 19011KT 9999 FEW004 SCT007 BKN010 10/09 Q1028  
EGPO 200450Z 21012KT 9999 FEW004 BKN009 10/09 Q1028 
EGPO 200420Z AUTO 21012KT 9999 BKN007/// OVC010/// 10/09 Q1028  
EGPO 200350Z AUTO 21010KT 9999 OVC008/// 10/09 Q1028
EGPO 200320Z AUTO 20010KT 9999 OVC007/// 10/09 Q1028
EGPO 200250Z AUTO 20012KT 9999 OVC007/// 10/09 Q1028
EGPO 200220Z AUTO 20012KT 9999 BKN010/// OVC033/// 10/09 Q1027  
EGPO 200150Z AUTO 20011KT 9999 BKN012/// BKN034/// 10/09 Q1027  
EGPO 200120Z AUTO 22012KT 9999 SCT012/// BKN031/// 10/09 Q1027  
EGPO 200050Z AUTO 21013KT 9999 BKN034/// 10/09 Q1027
EGPO 200020Z AUTO 21014KT 9999 BKN046/// 10/09 Q1027
EGPO 192350Z AUTO 20014KT 9999 NCD 10/09 Q1027  
EGPO 192320Z AUTO 19013KT 9999 NCD 11/09 Q1026  
EGPO 192250Z AUTO 19014KT 9999 NCD 11/09 Q1027  
EGPO 192220Z AUTO 16010KT 9999 NCD 11/08 Q1027  
EGPO 192150Z AUTO 16012KT 9000 NCD 10/08 Q1027  
EGPO 192120Z AUTO 15014KT 9999 NCD 12/08 Q1026  
EGPO 192050Z AUTO 19008KT 9999 NCD 12/08 Q1027  
EGPO 192020Z AUTO 21008KT 9999 NCD 12/08 Q1027  
EGPO 191950Z AUTO 20014KT 9999 NCD 13/08 Q1026  
EGPO 191920Z AUTO 20017KT 9999 NCD 14/07 Q1026  
EGPO 191850Z AUTO 21017KT 9999 NCD 15/07 Q1026  
EGPO 191820Z 20016KT CAVOK 15/08 Q1026  
EGPO 191750Z 21012KT CAVOK 16/09 Q1026  
EGPO 191720Z 20011KT CAVOK 16/09 Q1026  
EGPO 191650Z 18011KT CAVOK 15/08 Q1026  
EGPO 191620Z 20015KT CAVOK 17/08 Q1026  
EGPO 191550Z 19016KT CAVOK 16/08 Q1026  
EGPO 191520Z 19015KT CAVOK 17/09 Q1026  
EGPO 191450Z 18008KT 130V220 CAVOK 16/09 Q1026  
EGPO 191420Z 17012KT 140V200 CAVOK 16/09 Q1026  
EGPO 191350Z 17010KT CAVOK 16/08 Q1026  
EGPO 191320Z 15011KT CAVOK 15/08 Q1026  
EGPO 191250Z 14010KT 110V170 CAVOK 15/07 Q1027  
EGPO 191220Z 16009KT CAVOK 15/07 Q1027  
EGPO 191150Z 18013KT CAVOK 16/07 Q1027  
EGPO 191120Z 17012KT CAVOK 15/07 Q1027  
EGPO 191050Z 17012KT CAVOK 14/06 Q1027  
EGPO 191020Z 18014KT CAVOK 15/06 Q1027  
EGPO 190950Z 17011KT CAVOK 14/07 Q1028  
EGPO 190920Z 18010KT CAVOK 14/07 Q1028  
EGPO 190850Z 15009KT CAVOK 12/07 Q1028  
EGPO 190820Z 16008KT CAVOK 12/08 Q1027  
EGPO 190750Z 15007KT CAVOK 11/08 Q1027  
EGPO 190720Z 15008KT CAVOK 11/08 Q1027  
EGPO 190650Z 15007KT CAVOK 11/09 Q1027  
EGPO 190620Z 11002KT 8000 MIFG FEW045 06/05 Q1027   
EGPO 190550Z 00000KT 8000 MIFG FEW045 06/05 Q1027